<?xml version="1.0" encoding="UTF-8" standalone="no" ?>
<gpx xmlns="http://www.topografix.com/GPX/1/1" xmlns:xsi="http://www.w3.org/2001/XMLSchema-instance" xsi:schemaLocation="http://www.topografix.com/GPX/1/1 http://www.topografix.com/GPX/1/1/gpx.xsd" version="1.1" creator="VisuGPX - https://www.visugpx.com">
  <metadata>
    <name>OR-5359061--Zillebeke:20151008 Zillebeke</name>
  </metadata>
  <trk>
    <name><![CDATA[OR-5359061--Zillebeke:20151008 Zillebeke]]></name>
    <trkseg>
      <trkpt lat="50.83545" lon="2.92218">
        <ele>28</ele>
        <time>2016-07-17T15:39:36Z</time>
      </trkpt>
      <trkpt lat="50.83542" lon="2.92216">
        <ele>28</ele>
        <time>2016-07-17T15:41:36Z</time>
      </trkpt>
      <trkpt lat="50.83544" lon="2.92209">
        <ele>28</ele>
        <time>2016-07-17T15:43:36Z</time>
      </trkpt>
      <trkpt lat="50.8356" lon="2.92208">
        <ele>28</ele>
        <time>2016-07-17T15:45:36Z</time>
      </trkpt>
      <trkpt lat="50.83567" lon="2.92218">
        <ele>28</ele>
        <time>2016-07-17T15:47:36Z</time>
      </trkpt>
      <trkpt lat="50.83591" lon="2.92218">
        <ele>28</ele>
        <time>2016-07-17T15:49:36Z</time>
      </trkpt>
      <trkpt lat="50.83619" lon="2.92208">
        <ele>28</ele>
        <time>2016-07-17T15:51:36Z</time>
      </trkpt>
      <trkpt lat="50.8362" lon="2.92162">
        <ele>28</ele>
        <time>2016-07-17T15:53:36Z</time>
      </trkpt>
      <trkpt lat="50.83617" lon="2.92039">
        <ele>26</ele>
        <time>2016-07-17T15:55:36Z</time>
      </trkpt>
      <trkpt lat="50.83612" lon="2.91961">
        <ele>26</ele>
        <time>2016-07-17T15:57:36Z</time>
      </trkpt>
      <trkpt lat="50.83609" lon="2.91923">
        <ele>26</ele>
        <time>2016-07-17T15:59:36Z</time>
      </trkpt>
      <trkpt lat="50.83602" lon="2.91901">
        <ele>26</ele>
        <time>2016-07-17T16:01:36Z</time>
      </trkpt>
      <trkpt lat="50.83584" lon="2.91894">
        <ele>26</ele>
        <time>2016-07-17T16:03:36Z</time>
      </trkpt>
      <trkpt lat="50.83561" lon="2.9185">
        <ele>26</ele>
        <time>2016-07-17T16:05:36Z</time>
      </trkpt>
      <trkpt lat="50.83557" lon="2.91729">
        <ele>27</ele>
        <time>2016-07-17T16:07:36Z</time>
      </trkpt>
      <trkpt lat="50.83552" lon="2.91617">
        <ele>26</ele>
        <time>2016-07-17T16:09:36Z</time>
      </trkpt>
      <trkpt lat="50.83551" lon="2.91555">
        <ele>25</ele>
        <time>2016-07-17T16:11:36Z</time>
      </trkpt>
      <trkpt lat="50.83548" lon="2.91498">
        <ele>24</ele>
        <time>2016-07-17T16:13:36Z</time>
      </trkpt>
      <trkpt lat="50.83546" lon="2.91443">
        <ele>24</ele>
        <time>2016-07-17T16:15:36Z</time>
      </trkpt>
      <trkpt lat="50.83546" lon="2.91387">
        <ele>24</ele>
        <time>2016-07-17T16:17:36Z</time>
      </trkpt>
      <trkpt lat="50.83548" lon="2.91331">
        <ele>24</ele>
        <time>2016-07-17T16:19:36Z</time>
      </trkpt>
      <trkpt lat="50.83551" lon="2.91169">
        <ele>24</ele>
        <time>2016-07-17T16:21:36Z</time>
      </trkpt>
      <trkpt lat="50.83555" lon="2.91102">
        <ele>25</ele>
        <time>2016-07-17T16:23:36Z</time>
      </trkpt>
      <trkpt lat="50.83563" lon="2.91045">
        <ele>26</ele>
        <time>2016-07-17T16:25:36Z</time>
      </trkpt>
      <trkpt lat="50.83572" lon="2.90998">
        <ele>27</ele>
        <time>2016-07-17T16:27:36Z</time>
      </trkpt>
      <trkpt lat="50.83579" lon="2.90944">
        <ele>27</ele>
        <time>2016-07-17T16:29:36Z</time>
      </trkpt>
      <trkpt lat="50.83596" lon="2.90849">
        <ele>26</ele>
        <time>2016-07-17T16:31:36Z</time>
      </trkpt>
      <trkpt lat="50.83614" lon="2.90762">
        <ele>25</ele>
        <time>2016-07-17T16:33:36Z</time>
      </trkpt>
      <trkpt lat="50.83622" lon="2.90715">
        <ele>25</ele>
        <time>2016-07-17T16:35:36Z</time>
      </trkpt>
      <trkpt lat="50.8363" lon="2.90673">
        <ele>24</ele>
        <time>2016-07-17T16:37:36Z</time>
      </trkpt>
      <trkpt lat="50.83637" lon="2.90618">
        <ele>25</ele>
        <time>2016-07-17T16:39:36Z</time>
      </trkpt>
      <trkpt lat="50.83645" lon="2.90577">
        <ele>25</ele>
        <time>2016-07-17T16:41:36Z</time>
      </trkpt>
      <trkpt lat="50.83652" lon="2.90529">
        <ele>26</ele>
        <time>2016-07-17T16:43:36Z</time>
      </trkpt>
      <trkpt lat="50.83659" lon="2.90493">
        <ele>26</ele>
        <time>2016-07-17T16:45:36Z</time>
      </trkpt>
      <trkpt lat="50.83679" lon="2.90481">
        <ele>25</ele>
        <time>2016-07-17T16:47:36Z</time>
      </trkpt>
      <trkpt lat="50.83707" lon="2.90471">
        <ele>24</ele>
        <time>2016-07-17T16:49:36Z</time>
      </trkpt>
      <trkpt lat="50.83736" lon="2.90463">
        <ele>23</ele>
        <time>2016-07-17T16:51:36Z</time>
      </trkpt>
      <trkpt lat="50.83763" lon="2.90456">
        <ele>22</ele>
        <time>2016-07-17T16:53:36Z</time>
      </trkpt>
      <trkpt lat="50.83815" lon="2.90439">
        <ele>22</ele>
        <time>2016-07-17T16:55:36Z</time>
      </trkpt>
      <trkpt lat="50.83842" lon="2.90436">
        <ele>22</ele>
        <time>2016-07-17T16:57:36Z</time>
      </trkpt>
      <trkpt lat="50.83873" lon="2.90436">
        <ele>23</ele>
        <time>2016-07-17T16:59:36Z</time>
      </trkpt>
      <trkpt lat="50.83902" lon="2.90433">
        <ele>24</ele>
        <time>2016-07-17T17:01:36Z</time>
      </trkpt>
      <trkpt lat="50.83924" lon="2.90429">
        <ele>24</ele>
        <time>2016-07-17T17:03:36Z</time>
      </trkpt>
      <trkpt lat="50.8395" lon="2.90428">
        <ele>23</ele>
        <time>2016-07-17T17:05:36Z</time>
      </trkpt>
      <trkpt lat="50.83968" lon="2.90438">
        <ele>22</ele>
        <time>2016-07-17T17:07:36Z</time>
      </trkpt>
      <trkpt lat="50.83981" lon="2.90436">
        <ele>22</ele>
        <time>2016-07-17T17:09:36Z</time>
      </trkpt>
      <trkpt lat="50.83998" lon="2.90424">
        <ele>21</ele>
        <time>2016-07-17T17:11:36Z</time>
      </trkpt>
      <trkpt lat="50.84013" lon="2.90395">
        <ele>21</ele>
        <time>2016-07-17T17:13:36Z</time>
      </trkpt>
      <trkpt lat="50.84022" lon="2.90357">
        <ele>21</ele>
        <time>2016-07-17T17:15:36Z</time>
      </trkpt>
      <trkpt lat="50.84036" lon="2.9032">
        <ele>20</ele>
        <time>2016-07-17T17:17:36Z</time>
      </trkpt>
      <trkpt lat="50.84045" lon="2.90287">
        <ele>20</ele>
        <time>2016-07-17T17:19:36Z</time>
      </trkpt>
      <trkpt lat="50.84036" lon="2.90237">
        <ele>19</ele>
        <time>2016-07-17T17:21:36Z</time>
      </trkpt>
      <trkpt lat="50.84029" lon="2.90193">
        <ele>18</ele>
        <time>2016-07-17T17:23:36Z</time>
      </trkpt>
      <trkpt lat="50.84021" lon="2.9015">
        <ele>18</ele>
        <time>2016-07-17T17:25:36Z</time>
      </trkpt>
      <trkpt lat="50.84014" lon="2.90119">
        <ele>17</ele>
        <time>2016-07-17T17:27:36Z</time>
      </trkpt>
      <trkpt lat="50.84011" lon="2.9009">
        <ele>17</ele>
        <time>2016-07-17T17:29:36Z</time>
      </trkpt>
      <trkpt lat="50.84016" lon="2.90072">
        <ele>17</ele>
        <time>2016-07-17T17:31:36Z</time>
      </trkpt>
      <trkpt lat="50.84006" lon="2.90054">
        <ele>17</ele>
        <time>2016-07-17T17:33:36Z</time>
      </trkpt>
      <trkpt lat="50.8398" lon="2.9005">
        <ele>17</ele>
        <time>2016-07-17T17:35:36Z</time>
      </trkpt>
      <trkpt lat="50.83931" lon="2.90017">
        <ele>17</ele>
        <time>2016-07-17T17:37:36Z</time>
      </trkpt>
      <trkpt lat="50.8391" lon="2.90002">
        <ele>17</ele>
        <time>2016-07-17T17:39:36Z</time>
      </trkpt>
      <trkpt lat="50.83885" lon="2.89986">
        <ele>17</ele>
        <time>2016-07-17T17:41:36Z</time>
      </trkpt>
      <trkpt lat="50.83863" lon="2.89971">
        <ele>17</ele>
        <time>2016-07-17T17:43:36Z</time>
      </trkpt>
      <trkpt lat="50.83845" lon="2.89954">
        <ele>17</ele>
        <time>2016-07-17T17:45:36Z</time>
      </trkpt>
      <trkpt lat="50.83843" lon="2.89913">
        <ele>17</ele>
        <time>2016-07-17T17:47:36Z</time>
      </trkpt>
      <trkpt lat="50.83843" lon="2.89876">
        <ele>17</ele>
        <time>2016-07-17T17:49:36Z</time>
      </trkpt>
      <trkpt lat="50.83844" lon="2.89833">
        <ele>17</ele>
        <time>2016-07-17T17:51:36Z</time>
      </trkpt>
      <trkpt lat="50.83846" lon="2.89794">
        <ele>17</ele>
        <time>2016-07-17T17:53:36Z</time>
      </trkpt>
      <trkpt lat="50.83845" lon="2.8975">
        <ele>18</ele>
        <time>2016-07-17T17:55:36Z</time>
      </trkpt>
      <trkpt lat="50.83846" lon="2.89669">
        <ele>18</ele>
        <time>2016-07-17T17:57:36Z</time>
      </trkpt>
      <trkpt lat="50.83846" lon="2.89632">
        <ele>18</ele>
        <time>2016-07-17T17:59:36Z</time>
      </trkpt>
      <trkpt lat="50.83847" lon="2.89592">
        <ele>19</ele>
        <time>2016-07-17T18:01:36Z</time>
      </trkpt>
      <trkpt lat="50.83847" lon="2.89554">
        <ele>19</ele>
        <time>2016-07-17T18:03:36Z</time>
      </trkpt>
      <trkpt lat="50.83842" lon="2.89519">
        <ele>19</ele>
        <time>2016-07-17T18:05:36Z</time>
      </trkpt>
      <trkpt lat="50.83833" lon="2.89479">
        <ele>20</ele>
        <time>2016-07-17T18:07:36Z</time>
      </trkpt>
      <trkpt lat="50.83829" lon="2.8944">
        <ele>19</ele>
        <time>2016-07-17T18:09:36Z</time>
      </trkpt>
      <trkpt lat="50.83824" lon="2.89361">
        <ele>18</ele>
        <time>2016-07-17T18:11:36Z</time>
      </trkpt>
      <trkpt lat="50.8382" lon="2.89321">
        <ele>18</ele>
        <time>2016-07-17T18:13:36Z</time>
      </trkpt>
      <trkpt lat="50.83816" lon="2.89241">
        <ele>17</ele>
        <time>2016-07-17T18:15:36Z</time>
      </trkpt>
      <trkpt lat="50.83797" lon="2.8922">
        <ele>18</ele>
        <time>2016-07-17T18:17:36Z</time>
      </trkpt>
      <trkpt lat="50.8377" lon="2.89226">
        <ele>18</ele>
        <time>2016-07-17T18:19:36Z</time>
      </trkpt>
      <trkpt lat="50.83741" lon="2.89224">
        <ele>19</ele>
        <time>2016-07-17T18:21:36Z</time>
      </trkpt>
      <trkpt lat="50.83718" lon="2.8921">
        <ele>19</ele>
        <time>2016-07-17T18:23:36Z</time>
      </trkpt>
      <trkpt lat="50.83689" lon="2.89196">
        <ele>19</ele>
        <time>2016-07-17T18:25:36Z</time>
      </trkpt>
      <trkpt lat="50.83677" lon="2.89157">
        <ele>19</ele>
        <time>2016-07-17T18:27:36Z</time>
      </trkpt>
      <trkpt lat="50.83675" lon="2.89112">
        <ele>18</ele>
        <time>2016-07-17T18:29:36Z</time>
      </trkpt>
      <trkpt lat="50.83672" lon="2.89025">
        <ele>17</ele>
        <time>2016-07-17T18:31:36Z</time>
      </trkpt>
      <trkpt lat="50.83673" lon="2.88975">
        <ele>18</ele>
        <time>2016-07-17T18:33:36Z</time>
      </trkpt>
      <trkpt lat="50.83685" lon="2.88939">
        <ele>18</ele>
        <time>2016-07-17T18:35:36Z</time>
      </trkpt>
      <trkpt lat="50.83707" lon="2.88919">
        <ele>18</ele>
        <time>2016-07-17T18:37:36Z</time>
      </trkpt>
      <trkpt lat="50.83731" lon="2.88906">
        <ele>18</ele>
        <time>2016-07-17T18:39:36Z</time>
      </trkpt>
      <trkpt lat="50.83757" lon="2.88906">
        <ele>17</ele>
        <time>2016-07-17T18:41:36Z</time>
      </trkpt>
      <trkpt lat="50.83807" lon="2.88929">
        <ele>18</ele>
        <time>2016-07-17T18:43:36Z</time>
      </trkpt>
      <trkpt lat="50.83833" lon="2.88939">
        <ele>18</ele>
        <time>2016-07-17T18:45:36Z</time>
      </trkpt>
      <trkpt lat="50.83855" lon="2.88938">
        <ele>18</ele>
        <time>2016-07-17T18:47:36Z</time>
      </trkpt>
      <trkpt lat="50.8386" lon="2.88933">
        <ele>19</ele>
        <time>2016-07-17T18:49:36Z</time>
      </trkpt>
      <trkpt lat="50.83873" lon="2.88925">
        <ele>19</ele>
        <time>2016-07-17T18:51:36Z</time>
      </trkpt>
      <trkpt lat="50.83888" lon="2.88895">
        <ele>20</ele>
        <time>2016-07-17T18:53:36Z</time>
      </trkpt>
      <trkpt lat="50.83911" lon="2.88877">
        <ele>20</ele>
        <time>2016-07-17T18:55:36Z</time>
      </trkpt>
      <trkpt lat="50.84011" lon="2.88903">
        <ele>20</ele>
        <time>2016-07-17T18:57:36Z</time>
      </trkpt>
      <trkpt lat="50.84036" lon="2.88911">
        <ele>20</ele>
        <time>2016-07-17T18:59:36Z</time>
      </trkpt>
      <trkpt lat="50.84089" lon="2.88924">
        <ele>20</ele>
        <time>2016-07-17T19:01:36Z</time>
      </trkpt>
      <trkpt lat="50.84117" lon="2.88929">
        <ele>19</ele>
        <time>2016-07-17T19:03:36Z</time>
      </trkpt>
      <trkpt lat="50.84169" lon="2.88935">
        <ele>19</ele>
        <time>2016-07-17T19:05:36Z</time>
      </trkpt>
      <trkpt lat="50.84194" lon="2.8894">
        <ele>19</ele>
        <time>2016-07-17T19:07:36Z</time>
      </trkpt>
      <trkpt lat="50.84217" lon="2.88942">
        <ele>19</ele>
        <time>2016-07-17T19:09:36Z</time>
      </trkpt>
      <trkpt lat="50.8424" lon="2.88952">
        <ele>19</ele>
        <time>2016-07-17T19:11:36Z</time>
      </trkpt>
      <trkpt lat="50.84244" lon="2.88988">
        <ele>19</ele>
        <time>2016-07-17T19:13:36Z</time>
      </trkpt>
      <trkpt lat="50.84263" lon="2.89001">
        <ele>19</ele>
        <time>2016-07-17T19:15:36Z</time>
      </trkpt>
      <trkpt lat="50.84267" lon="2.89038">
        <ele>19</ele>
        <time>2016-07-17T19:17:36Z</time>
      </trkpt>
      <trkpt lat="50.84274" lon="2.89043">
        <ele>19</ele>
        <time>2016-07-17T19:19:36Z</time>
      </trkpt>
      <trkpt lat="50.8428" lon="2.89012">
        <ele>19</ele>
        <time>2016-07-17T19:21:36Z</time>
      </trkpt>
      <trkpt lat="50.84294" lon="2.88987">
        <ele>20</ele>
        <time>2016-07-17T19:23:36Z</time>
      </trkpt>
      <trkpt lat="50.84313" lon="2.88971">
        <ele>20</ele>
        <time>2016-07-17T19:25:36Z</time>
      </trkpt>
      <trkpt lat="50.84338" lon="2.88984">
        <ele>20</ele>
        <time>2016-07-17T19:27:36Z</time>
      </trkpt>
      <trkpt lat="50.84359" lon="2.88983">
        <ele>20</ele>
        <time>2016-07-17T19:29:36Z</time>
      </trkpt>
      <trkpt lat="50.84366" lon="2.88957">
        <ele>21</ele>
        <time>2016-07-17T19:31:36Z</time>
      </trkpt>
      <trkpt lat="50.84377" lon="2.8892">
        <ele>21</ele>
        <time>2016-07-17T19:33:36Z</time>
      </trkpt>
      <trkpt lat="50.84383" lon="2.88884">
        <ele>21</ele>
        <time>2016-07-17T19:35:36Z</time>
      </trkpt>
      <trkpt lat="50.84372" lon="2.88848">
        <ele>21</ele>
        <time>2016-07-17T19:37:36Z</time>
      </trkpt>
      <trkpt lat="50.84352" lon="2.88819">
        <ele>21</ele>
        <time>2016-07-17T19:39:36Z</time>
      </trkpt>
      <trkpt lat="50.84334" lon="2.88787">
        <ele>22</ele>
        <time>2016-07-17T19:41:36Z</time>
      </trkpt>
      <trkpt lat="50.84298" lon="2.88727">
        <ele>20</ele>
        <time>2016-07-17T19:43:36Z</time>
      </trkpt>
      <trkpt lat="50.84287" lon="2.88694">
        <ele>20</ele>
        <time>2016-07-17T19:45:36Z</time>
      </trkpt>
      <trkpt lat="50.84301" lon="2.88656">
        <ele>21</ele>
        <time>2016-07-17T19:47:36Z</time>
      </trkpt>
      <trkpt lat="50.84348" lon="2.88619">
        <ele>22</ele>
        <time>2016-07-17T19:49:36Z</time>
      </trkpt>
      <trkpt lat="50.84394" lon="2.8858">
        <ele>21</ele>
        <time>2016-07-17T19:51:36Z</time>
      </trkpt>
      <trkpt lat="50.84413" lon="2.88555">
        <ele>21</ele>
        <time>2016-07-17T19:53:36Z</time>
      </trkpt>
      <trkpt lat="50.84409" lon="2.88516">
        <ele>20</ele>
        <time>2016-07-17T19:55:36Z</time>
      </trkpt>
      <trkpt lat="50.844" lon="2.88477">
        <ele>21</ele>
        <time>2016-07-17T19:57:36Z</time>
      </trkpt>
      <trkpt lat="50.84389" lon="2.88435">
        <ele>22</ele>
        <time>2016-07-17T19:59:36Z</time>
      </trkpt>
      <trkpt lat="50.84376" lon="2.88396">
        <ele>22</ele>
        <time>2016-07-17T20:01:36Z</time>
      </trkpt>
      <trkpt lat="50.84365" lon="2.88355">
        <ele>22</ele>
        <time>2016-07-17T20:03:36Z</time>
      </trkpt>
      <trkpt lat="50.84359" lon="2.88307">
        <ele>22</ele>
        <time>2016-07-17T20:05:36Z</time>
      </trkpt>
      <trkpt lat="50.84373" lon="2.88267">
        <ele>21</ele>
        <time>2016-07-17T20:07:36Z</time>
      </trkpt>
      <trkpt lat="50.844" lon="2.88257">
        <ele>21</ele>
        <time>2016-07-17T20:09:36Z</time>
      </trkpt>
      <trkpt lat="50.84425" lon="2.88248">
        <ele>21</ele>
        <time>2016-07-17T20:11:36Z</time>
      </trkpt>
      <trkpt lat="50.8444" lon="2.88251">
        <ele>21</ele>
        <time>2016-07-17T20:13:36Z</time>
      </trkpt>
      <trkpt lat="50.84465" lon="2.88241">
        <ele>21</ele>
        <time>2016-07-17T20:15:36Z</time>
      </trkpt>
      <trkpt lat="50.84492" lon="2.88233">
        <ele>21</ele>
        <time>2016-07-17T20:17:36Z</time>
      </trkpt>
      <trkpt lat="50.84519" lon="2.88224">
        <ele>22</ele>
        <time>2016-07-17T20:19:36Z</time>
      </trkpt>
      <trkpt lat="50.84541" lon="2.88207">
        <ele>22</ele>
        <time>2016-07-17T20:21:36Z</time>
      </trkpt>
      <trkpt lat="50.84554" lon="2.88168">
        <ele>23</ele>
        <time>2016-07-17T20:23:36Z</time>
      </trkpt>
      <trkpt lat="50.8458" lon="2.88161">
        <ele>23</ele>
        <time>2016-07-17T20:25:36Z</time>
      </trkpt>
      <trkpt lat="50.84599" lon="2.88133">
        <ele>23</ele>
        <time>2016-07-17T20:27:36Z</time>
      </trkpt>
      <trkpt lat="50.8461" lon="2.8809">
        <ele>23</ele>
        <time>2016-07-17T20:29:36Z</time>
      </trkpt>
      <trkpt lat="50.84628" lon="2.88078">
        <ele>22</ele>
        <time>2016-07-17T20:31:36Z</time>
      </trkpt>
      <trkpt lat="50.84659" lon="2.88082">
        <ele>22</ele>
        <time>2016-07-17T20:33:36Z</time>
      </trkpt>
      <trkpt lat="50.84681" lon="2.88103">
        <ele>22</ele>
        <time>2016-07-17T20:35:36Z</time>
      </trkpt>
      <trkpt lat="50.84697" lon="2.88123">
        <ele>22</ele>
        <time>2016-07-17T20:37:36Z</time>
      </trkpt>
      <trkpt lat="50.84722" lon="2.8814">
        <ele>23</ele>
        <time>2016-07-17T20:39:36Z</time>
      </trkpt>
      <trkpt lat="50.84742" lon="2.88141">
        <ele>23</ele>
        <time>2016-07-17T20:41:36Z</time>
      </trkpt>
      <trkpt lat="50.84742" lon="2.88136">
        <ele>23</ele>
        <time>2016-07-17T20:43:36Z</time>
      </trkpt>
      <trkpt lat="50.84744" lon="2.88135">
        <ele>23</ele>
        <time>2016-07-17T20:45:36Z</time>
      </trkpt>
      <trkpt lat="50.84745" lon="2.88127">
        <ele>23</ele>
        <time>2016-07-17T20:47:36Z</time>
      </trkpt>
      <trkpt lat="50.84745" lon="2.88128">
        <ele>23</ele>
        <time>2016-07-17T20:49:36Z</time>
      </trkpt>
      <trkpt lat="50.84746" lon="2.88124">
        <ele>23</ele>
        <time>2016-07-17T20:51:36Z</time>
      </trkpt>
      <trkpt lat="50.84741" lon="2.88118">
        <ele>23</ele>
        <time>2016-07-17T20:53:36Z</time>
      </trkpt>
      <trkpt lat="50.84739" lon="2.88124">
        <ele>23</ele>
        <time>2016-07-17T20:55:36Z</time>
      </trkpt>
      <trkpt lat="50.84745" lon="2.8813">
        <ele>23</ele>
        <time>2016-07-17T20:57:36Z</time>
      </trkpt>
      <trkpt lat="50.84743" lon="2.88138">
        <ele>23</ele>
        <time>2016-07-17T20:59:36Z</time>
      </trkpt>
      <trkpt lat="50.84748" lon="2.88134">
        <ele>23</ele>
        <time>2016-07-17T21:01:36Z</time>
      </trkpt>
      <trkpt lat="50.8476" lon="2.88147">
        <ele>23</ele>
        <time>2016-07-17T21:03:36Z</time>
      </trkpt>
      <trkpt lat="50.84758" lon="2.88195">
        <ele>23</ele>
        <time>2016-07-17T21:05:36Z</time>
      </trkpt>
      <trkpt lat="50.84741" lon="2.88232">
        <ele>22</ele>
        <time>2016-07-17T21:07:36Z</time>
      </trkpt>
      <trkpt lat="50.84722" lon="2.88272">
        <ele>22</ele>
        <time>2016-07-17T21:09:36Z</time>
      </trkpt>
      <trkpt lat="50.84693" lon="2.88287">
        <ele>22</ele>
        <time>2016-07-17T21:11:36Z</time>
      </trkpt>
      <trkpt lat="50.84671" lon="2.88294">
        <ele>21</ele>
        <time>2016-07-17T21:13:36Z</time>
      </trkpt>
      <trkpt lat="50.84642" lon="2.88304">
        <ele>21</ele>
        <time>2016-07-17T21:15:36Z</time>
      </trkpt>
      <trkpt lat="50.8462" lon="2.88307">
        <ele>21</ele>
        <time>2016-07-17T21:17:36Z</time>
      </trkpt>
      <trkpt lat="50.84591" lon="2.88318">
        <ele>20</ele>
        <time>2016-07-17T21:19:36Z</time>
      </trkpt>
      <trkpt lat="50.84565" lon="2.88342">
        <ele>20</ele>
        <time>2016-07-17T21:21:36Z</time>
      </trkpt>
      <trkpt lat="50.84537" lon="2.88365">
        <ele>20</ele>
        <time>2016-07-17T21:23:36Z</time>
      </trkpt>
      <trkpt lat="50.84515" lon="2.88398">
        <ele>20</ele>
        <time>2016-07-17T21:25:36Z</time>
      </trkpt>
      <trkpt lat="50.84513" lon="2.88442">
        <ele>20</ele>
        <time>2016-07-17T21:27:36Z</time>
      </trkpt>
      <trkpt lat="50.84534" lon="2.88485">
        <ele>20</ele>
        <time>2016-07-17T21:29:36Z</time>
      </trkpt>
      <trkpt lat="50.84547" lon="2.88525">
        <ele>20</ele>
        <time>2016-07-17T21:31:36Z</time>
      </trkpt>
      <trkpt lat="50.8455" lon="2.88572">
        <ele>20</ele>
        <time>2016-07-17T21:33:36Z</time>
      </trkpt>
      <trkpt lat="50.84542" lon="2.88608">
        <ele>20</ele>
        <time>2016-07-17T21:35:36Z</time>
      </trkpt>
      <trkpt lat="50.84525" lon="2.88644">
        <ele>19</ele>
        <time>2016-07-17T21:37:36Z</time>
      </trkpt>
      <trkpt lat="50.84482" lon="2.88696">
        <ele>20</ele>
        <time>2016-07-17T21:39:36Z</time>
      </trkpt>
      <trkpt lat="50.84462" lon="2.88715">
        <ele>20</ele>
        <time>2016-07-17T21:41:36Z</time>
      </trkpt>
      <trkpt lat="50.8446" lon="2.88728">
        <ele>20</ele>
        <time>2016-07-17T21:43:36Z</time>
      </trkpt>
      <trkpt lat="50.84451" lon="2.88759">
        <ele>21</ele>
        <time>2016-07-17T21:45:36Z</time>
      </trkpt>
      <trkpt lat="50.84484" lon="2.88826">
        <ele>20</ele>
        <time>2016-07-17T21:47:36Z</time>
      </trkpt>
      <trkpt lat="50.84487" lon="2.88858">
        <ele>20</ele>
        <time>2016-07-17T21:49:36Z</time>
      </trkpt>
      <trkpt lat="50.84486" lon="2.88902">
        <ele>20</ele>
        <time>2016-07-17T21:51:36Z</time>
      </trkpt>
      <trkpt lat="50.84481" lon="2.88938">
        <ele>20</ele>
        <time>2016-07-17T21:53:36Z</time>
      </trkpt>
      <trkpt lat="50.84465" lon="2.88969">
        <ele>20</ele>
        <time>2016-07-17T21:55:36Z</time>
      </trkpt>
      <trkpt lat="50.8445" lon="2.88991">
        <ele>20</ele>
        <time>2016-07-17T21:57:36Z</time>
      </trkpt>
      <trkpt lat="50.84444" lon="2.89024">
        <ele>20</ele>
        <time>2016-07-17T21:59:36Z</time>
      </trkpt>
      <trkpt lat="50.84454" lon="2.89061">
        <ele>21</ele>
        <time>2016-07-17T22:01:36Z</time>
      </trkpt>
      <trkpt lat="50.84467" lon="2.89098">
        <ele>21</ele>
        <time>2016-07-17T22:03:36Z</time>
      </trkpt>
      <trkpt lat="50.84467" lon="2.89141">
        <ele>22</ele>
        <time>2016-07-17T22:05:36Z</time>
      </trkpt>
      <trkpt lat="50.84466" lon="2.89177">
        <ele>23</ele>
        <time>2016-07-17T22:07:36Z</time>
      </trkpt>
      <trkpt lat="50.84467" lon="2.89214">
        <ele>22</ele>
        <time>2016-07-17T22:09:36Z</time>
      </trkpt>
      <trkpt lat="50.84485" lon="2.89228">
        <ele>23</ele>
        <time>2016-07-17T22:11:36Z</time>
      </trkpt>
      <trkpt lat="50.84508" lon="2.89217">
        <ele>23</ele>
        <time>2016-07-17T22:13:36Z</time>
      </trkpt>
      <trkpt lat="50.84522" lon="2.89187">
        <ele>23</ele>
        <time>2016-07-17T22:15:36Z</time>
      </trkpt>
      <trkpt lat="50.84544" lon="2.89179">
        <ele>23</ele>
        <time>2016-07-17T22:17:36Z</time>
      </trkpt>
      <trkpt lat="50.84572" lon="2.8918">
        <ele>23</ele>
        <time>2016-07-17T22:19:36Z</time>
      </trkpt>
      <trkpt lat="50.84625" lon="2.89178">
        <ele>24</ele>
        <time>2016-07-17T22:21:36Z</time>
      </trkpt>
      <trkpt lat="50.84647" lon="2.89186">
        <ele>25</ele>
        <time>2016-07-17T22:23:36Z</time>
      </trkpt>
      <trkpt lat="50.84671" lon="2.89202">
        <ele>25</ele>
        <time>2016-07-17T22:25:36Z</time>
      </trkpt>
      <trkpt lat="50.84697" lon="2.89202">
        <ele>25</ele>
        <time>2016-07-17T22:27:36Z</time>
      </trkpt>
      <trkpt lat="50.84719" lon="2.89187">
        <ele>26</ele>
        <time>2016-07-17T22:29:36Z</time>
      </trkpt>
      <trkpt lat="50.84742" lon="2.89174">
        <ele>26</ele>
        <time>2016-07-17T22:31:36Z</time>
      </trkpt>
      <trkpt lat="50.84766" lon="2.89161">
        <ele>26</ele>
        <time>2016-07-17T22:33:36Z</time>
      </trkpt>
      <trkpt lat="50.84809" lon="2.89148">
        <ele>24</ele>
        <time>2016-07-17T22:35:36Z</time>
      </trkpt>
      <trkpt lat="50.84818" lon="2.89143">
        <ele>24</ele>
        <time>2016-07-17T22:37:36Z</time>
      </trkpt>
      <trkpt lat="50.84817" lon="2.89147">
        <ele>24</ele>
        <time>2016-07-17T22:39:36Z</time>
      </trkpt>
      <trkpt lat="50.84821" lon="2.8913">
        <ele>24</ele>
        <time>2016-07-17T22:41:36Z</time>
      </trkpt>
      <trkpt lat="50.84832" lon="2.89116">
        <ele>23</ele>
        <time>2016-07-17T22:43:36Z</time>
      </trkpt>
      <trkpt lat="50.84837" lon="2.89137">
        <ele>24</ele>
        <time>2016-07-17T22:45:36Z</time>
      </trkpt>
      <trkpt lat="50.84846" lon="2.8918">
        <ele>24</ele>
        <time>2016-07-17T22:47:36Z</time>
      </trkpt>
      <trkpt lat="50.8485" lon="2.89214">
        <ele>24</ele>
        <time>2016-07-17T22:49:36Z</time>
      </trkpt>
      <trkpt lat="50.84855" lon="2.89283">
        <ele>25</ele>
        <time>2016-07-17T22:51:36Z</time>
      </trkpt>
      <trkpt lat="50.84838" lon="2.89313">
        <ele>25</ele>
        <time>2016-07-17T22:53:36Z</time>
      </trkpt>
      <trkpt lat="50.84812" lon="2.8932">
        <ele>25</ele>
        <time>2016-07-17T22:55:36Z</time>
      </trkpt>
      <trkpt lat="50.84784" lon="2.89325">
        <ele>26</ele>
        <time>2016-07-17T22:57:36Z</time>
      </trkpt>
      <trkpt lat="50.84705" lon="2.89338">
        <ele>25</ele>
        <time>2016-07-17T22:59:36Z</time>
      </trkpt>
      <trkpt lat="50.84678" lon="2.89342">
        <ele>25</ele>
        <time>2016-07-17T23:01:36Z</time>
      </trkpt>
      <trkpt lat="50.84654" lon="2.89342">
        <ele>25</ele>
        <time>2016-07-17T23:03:36Z</time>
      </trkpt>
      <trkpt lat="50.84633" lon="2.89348">
        <ele>24</ele>
        <time>2016-07-17T23:05:36Z</time>
      </trkpt>
      <trkpt lat="50.84611" lon="2.8935">
        <ele>24</ele>
        <time>2016-07-17T23:07:36Z</time>
      </trkpt>
      <trkpt lat="50.84592" lon="2.89361">
        <ele>24</ele>
        <time>2016-07-17T23:09:36Z</time>
      </trkpt>
      <trkpt lat="50.84567" lon="2.89366">
        <ele>23</ele>
        <time>2016-07-17T23:11:36Z</time>
      </trkpt>
      <trkpt lat="50.84543" lon="2.8937">
        <ele>23</ele>
        <time>2016-07-17T23:13:36Z</time>
      </trkpt>
      <trkpt lat="50.84521" lon="2.89372">
        <ele>22</ele>
        <time>2016-07-17T23:15:36Z</time>
      </trkpt>
      <trkpt lat="50.84503" lon="2.89382">
        <ele>22</ele>
        <time>2016-07-17T23:17:36Z</time>
      </trkpt>
      <trkpt lat="50.84482" lon="2.89384">
        <ele>22</ele>
        <time>2016-07-17T23:19:36Z</time>
      </trkpt>
      <trkpt lat="50.84479" lon="2.89413">
        <ele>22</ele>
        <time>2016-07-17T23:21:36Z</time>
      </trkpt>
      <trkpt lat="50.84485" lon="2.89454">
        <ele>22</ele>
        <time>2016-07-17T23:23:36Z</time>
      </trkpt>
      <trkpt lat="50.8449" lon="2.89496">
        <ele>22</ele>
        <time>2016-07-17T23:25:36Z</time>
      </trkpt>
      <trkpt lat="50.84493" lon="2.89534">
        <ele>22</ele>
        <time>2016-07-17T23:27:36Z</time>
      </trkpt>
      <trkpt lat="50.84494" lon="2.89575">
        <ele>22</ele>
        <time>2016-07-17T23:29:36Z</time>
      </trkpt>
      <trkpt lat="50.84504" lon="2.89659">
        <ele>22</ele>
        <time>2016-07-17T23:31:36Z</time>
      </trkpt>
      <trkpt lat="50.84511" lon="2.897">
        <ele>22</ele>
        <time>2016-07-17T23:33:36Z</time>
      </trkpt>
      <trkpt lat="50.84516" lon="2.89743">
        <ele>23</ele>
        <time>2016-07-17T23:35:36Z</time>
      </trkpt>
      <trkpt lat="50.84523" lon="2.89782">
        <ele>23</ele>
        <time>2016-07-17T23:37:36Z</time>
      </trkpt>
      <trkpt lat="50.84523" lon="2.898">
        <ele>24</ele>
        <time>2016-07-17T23:39:36Z</time>
      </trkpt>
      <trkpt lat="50.84527" lon="2.8983">
        <ele>24</ele>
        <time>2016-07-17T23:41:36Z</time>
      </trkpt>
      <trkpt lat="50.8453" lon="2.89901">
        <ele>24</ele>
        <time>2016-07-17T23:43:36Z</time>
      </trkpt>
      <trkpt lat="50.84514" lon="2.8992">
        <ele>24</ele>
        <time>2016-07-17T23:45:36Z</time>
      </trkpt>
      <trkpt lat="50.84462" lon="2.89914">
        <ele>23</ele>
        <time>2016-07-17T23:47:36Z</time>
      </trkpt>
      <trkpt lat="50.84438" lon="2.89908">
        <ele>22</ele>
        <time>2016-07-17T23:49:36Z</time>
      </trkpt>
      <trkpt lat="50.84416" lon="2.89914">
        <ele>21</ele>
        <time>2016-07-17T23:51:36Z</time>
      </trkpt>
      <trkpt lat="50.84393" lon="2.8993">
        <ele>21</ele>
        <time>2016-07-17T23:53:36Z</time>
      </trkpt>
      <trkpt lat="50.84369" lon="2.89945">
        <ele>21</ele>
        <time>2016-07-17T23:55:36Z</time>
      </trkpt>
      <trkpt lat="50.84345" lon="2.89961">
        <ele>21</ele>
        <time>2016-07-17T23:57:36Z</time>
      </trkpt>
      <trkpt lat="50.84322" lon="2.8998">
        <ele>21</ele>
        <time>2016-07-17T23:59:36Z</time>
      </trkpt>
      <trkpt lat="50.84298" lon="2.89996">
        <ele>22</ele>
        <time>2016-07-18T00:01:36Z</time>
      </trkpt>
      <trkpt lat="50.84271" lon="2.90001">
        <ele>21</ele>
        <time>2016-07-18T00:03:36Z</time>
      </trkpt>
      <trkpt lat="50.84253" lon="2.89998">
        <ele>21</ele>
        <time>2016-07-18T00:05:36Z</time>
      </trkpt>
      <trkpt lat="50.84219" lon="2.90009">
        <ele>20</ele>
        <time>2016-07-18T00:07:36Z</time>
      </trkpt>
      <trkpt lat="50.84206" lon="2.90049">
        <ele>20</ele>
        <time>2016-07-18T00:09:36Z</time>
      </trkpt>
      <trkpt lat="50.84206" lon="2.90093">
        <ele>21</ele>
        <time>2016-07-18T00:11:36Z</time>
      </trkpt>
      <trkpt lat="50.84208" lon="2.90137">
        <ele>21</ele>
        <time>2016-07-18T00:13:36Z</time>
      </trkpt>
      <trkpt lat="50.84189" lon="2.90173">
        <ele>22</ele>
        <time>2016-07-18T00:15:36Z</time>
      </trkpt>
      <trkpt lat="50.84148" lon="2.90232">
        <ele>22</ele>
        <time>2016-07-18T00:17:36Z</time>
      </trkpt>
      <trkpt lat="50.84108" lon="2.90293">
        <ele>21</ele>
        <time>2016-07-18T00:19:36Z</time>
      </trkpt>
      <trkpt lat="50.84089" lon="2.90325">
        <ele>21</ele>
        <time>2016-07-18T00:21:36Z</time>
      </trkpt>
      <trkpt lat="50.84069" lon="2.90356">
        <ele>21</ele>
        <time>2016-07-18T00:23:36Z</time>
      </trkpt>
      <trkpt lat="50.8405" lon="2.90389">
        <ele>21</ele>
        <time>2016-07-18T00:25:36Z</time>
      </trkpt>
      <trkpt lat="50.84028" lon="2.9042">
        <ele>21</ele>
        <time>2016-07-18T00:27:36Z</time>
      </trkpt>
      <trkpt lat="50.84006" lon="2.90434">
        <ele>21</ele>
        <time>2016-07-18T00:29:36Z</time>
      </trkpt>
      <trkpt lat="50.84007" lon="2.90447">
        <ele>22</ele>
        <time>2016-07-18T00:31:36Z</time>
      </trkpt>
      <trkpt lat="50.8403" lon="2.90469">
        <ele>23</ele>
        <time>2016-07-18T00:33:36Z</time>
      </trkpt>
      <trkpt lat="50.84052" lon="2.90496">
        <ele>24</ele>
        <time>2016-07-18T00:35:36Z</time>
      </trkpt>
      <trkpt lat="50.84067" lon="2.90525">
        <ele>24</ele>
        <time>2016-07-18T00:37:36Z</time>
      </trkpt>
      <trkpt lat="50.84077" lon="2.90567">
        <ele>24</ele>
        <time>2016-07-18T00:39:36Z</time>
      </trkpt>
      <trkpt lat="50.84062" lon="2.90613">
        <ele>25</ele>
        <time>2016-07-18T00:41:36Z</time>
      </trkpt>
      <trkpt lat="50.84042" lon="2.90657">
        <ele>26</ele>
        <time>2016-07-18T00:43:36Z</time>
      </trkpt>
      <trkpt lat="50.84027" lon="2.90699">
        <ele>26</ele>
        <time>2016-07-18T00:45:36Z</time>
      </trkpt>
      <trkpt lat="50.84009" lon="2.90736">
        <ele>27</ele>
        <time>2016-07-18T00:47:36Z</time>
      </trkpt>
      <trkpt lat="50.83978" lon="2.90813">
        <ele>26</ele>
        <time>2016-07-18T00:49:36Z</time>
      </trkpt>
      <trkpt lat="50.83928" lon="2.90927">
        <ele>25</ele>
        <time>2016-07-18T00:51:36Z</time>
      </trkpt>
      <trkpt lat="50.83914" lon="2.90963">
        <ele>25</ele>
        <time>2016-07-18T00:53:36Z</time>
      </trkpt>
      <trkpt lat="50.83898" lon="2.90999">
        <ele>25</ele>
        <time>2016-07-18T00:55:36Z</time>
      </trkpt>
      <trkpt lat="50.8386" lon="2.91079">
        <ele>25</ele>
        <time>2016-07-18T00:57:36Z</time>
      </trkpt>
      <trkpt lat="50.83847" lon="2.91114">
        <ele>25</ele>
        <time>2016-07-18T00:59:36Z</time>
      </trkpt>
      <trkpt lat="50.8383" lon="2.91148">
        <ele>25</ele>
        <time>2016-07-18T01:01:36Z</time>
      </trkpt>
      <trkpt lat="50.83813" lon="2.91186">
        <ele>25</ele>
        <time>2016-07-18T01:03:36Z</time>
      </trkpt>
      <trkpt lat="50.83783" lon="2.91259">
        <ele>25</ele>
        <time>2016-07-18T01:05:36Z</time>
      </trkpt>
      <trkpt lat="50.83767" lon="2.91297">
        <ele>25</ele>
        <time>2016-07-18T01:07:36Z</time>
      </trkpt>
      <trkpt lat="50.83752" lon="2.91334">
        <ele>26</ele>
        <time>2016-07-18T01:09:36Z</time>
      </trkpt>
      <trkpt lat="50.83719" lon="2.91409">
        <ele>26</ele>
        <time>2016-07-18T01:11:36Z</time>
      </trkpt>
      <trkpt lat="50.83703" lon="2.91447">
        <ele>26</ele>
        <time>2016-07-18T01:13:36Z</time>
      </trkpt>
      <trkpt lat="50.83691" lon="2.91488">
        <ele>27</ele>
        <time>2016-07-18T01:15:36Z</time>
      </trkpt>
      <trkpt lat="50.83679" lon="2.9153">
        <ele>27</ele>
        <time>2016-07-18T01:17:36Z</time>
      </trkpt>
      <trkpt lat="50.83665" lon="2.91574">
        <ele>27</ele>
        <time>2016-07-18T01:19:36Z</time>
      </trkpt>
      <trkpt lat="50.83649" lon="2.91636">
        <ele>27</ele>
        <time>2016-07-18T01:21:36Z</time>
      </trkpt>
      <trkpt lat="50.83642" lon="2.9167">
        <ele>27</ele>
        <time>2016-07-18T01:23:36Z</time>
      </trkpt>
      <trkpt lat="50.83625" lon="2.91771">
        <ele>26</ele>
        <time>2016-07-18T01:25:36Z</time>
      </trkpt>
      <trkpt lat="50.83617" lon="2.91842">
        <ele>26</ele>
        <time>2016-07-18T01:27:36Z</time>
      </trkpt>
      <trkpt lat="50.8361" lon="2.91885">
        <ele>26</ele>
        <time>2016-07-18T01:29:36Z</time>
      </trkpt>
      <trkpt lat="50.8361" lon="2.91917">
        <ele>26</ele>
        <time>2016-07-18T01:31:36Z</time>
      </trkpt>
      <trkpt lat="50.83609" lon="2.9195">
        <ele>26</ele>
        <time>2016-07-18T01:33:36Z</time>
      </trkpt>
      <trkpt lat="50.83612" lon="2.9199">
        <ele>26</ele>
        <time>2016-07-18T01:35:36Z</time>
      </trkpt>
      <trkpt lat="50.83616" lon="2.92068">
        <ele>27</ele>
        <time>2016-07-18T01:37:36Z</time>
      </trkpt>
      <trkpt lat="50.83617" lon="2.92148">
        <ele>28</ele>
        <time>2016-07-18T01:39:36Z</time>
      </trkpt>
      <trkpt lat="50.83619" lon="2.92188">
        <ele>28</ele>
        <time>2016-07-18T01:41:36Z</time>
      </trkpt>
      <trkpt lat="50.83606" lon="2.92211">
        <ele>28</ele>
        <time>2016-07-18T01:43:36Z</time>
      </trkpt>
      <trkpt lat="50.83582" lon="2.92212">
        <ele>28</ele>
        <time>2016-07-18T01:45:36Z</time>
      </trkpt>
      <trkpt lat="50.83555" lon="2.9221">
        <ele>28</ele>
        <time>2016-07-18T01:47:36Z</time>
      </trkpt>
    </trkseg>
  </trk>
</gpx>